createdAt,value
2023-11-22T00:00:24.800Z,56.39
2023-11-22T00:02:52.071Z,55.90
2023-11-22T00:05:19.477Z,55.93
2023-11-22T00:07:46.673Z,55.92
2023-11-22T00:10:14.370Z,56.11
2023-11-22T00:12:41.605Z,56.53
2023-11-22T00:15:11.612Z,57.07
2023-11-22T00:17:39.123Z,56.65
2023-11-22T00:20:07.386Z,56.09
2023-11-22T00:22:34.812Z,55.82
2023-11-22T00:25:03.123Z,55.32
2023-11-22T00:27:32.713Z,55.22
2023-11-22T00:30:00.600Z,55.35
2023-11-22T00:32:28.297Z,55.51
2023-11-22T00:34:55.737Z,55.43
2023-11-22T00:37:23.133Z,55.99
2023-11-22T00:39:50.323Z,56.08
2023-11-22T00:42:21.285Z,55.48
2023-11-22T00:44:49.274Z,55.55
2023-11-22T00:47:18.152Z,55.13
2023-11-22T00:49:45.636Z,54.91
2023-11-22T00:52:14.466Z,55.29
2023-11-22T00:54:41.966Z,55.76
2023-11-22T00:57:09.239Z,55.40
2023-11-22T00:59:36.551Z,55.55
2023-11-22T01:02:04.145Z,55.60
2023-11-22T01:04:35.341Z,55.36
2023-11-22T01:07:03.174Z,55.35
2023-11-22T01:09:30.454Z,54.81
2023-11-22T01:11:57.770Z,55.24
2023-11-22T01:14:25.369Z,55.12
2023-11-22T01:16:52.897Z,55.28
2023-11-22T01:19:20.195Z,54.01
2023-11-22T01:21:47.545Z,53.66
2023-11-22T01:24:14.796Z,54.17
2023-11-22T01:26:42.284Z,54.21
2023-11-22T01:29:09.675Z,53.82
2023-11-22T01:31:36.993Z,54.25
2023-11-22T01:34:08.140Z,54.40
2023-11-22T01:36:35.608Z,54.54
2023-11-22T01:39:03.521Z,54.66
2023-11-22T01:41:31.524Z,54.50
2023-11-22T01:43:59.364Z,54.98
2023-11-22T01:46:27.461Z,55.42
2023-11-22T01:48:55.953Z,55.64
2023-11-22T01:51:25.273Z,55.90
2023-11-22T01:53:55.892Z,55.98
2023-11-22T01:56:25.584Z,55.78
2023-11-22T01:58:55.084Z,56.15
2023-11-22T02:01:22.615Z,56.43
2023-11-22T02:03:50.454Z,56.14
2023-11-22T02:06:18.112Z,56.99
2023-11-22T02:08:45.413Z,56.66
2023-11-22T02:11:12.767Z,56.91
2023-11-22T02:13:40.050Z,56.32
2023-11-22T02:16:07.492Z,55.94
2023-11-22T02:18:35.309Z,55.60
2023-11-22T02:21:03.055Z,55.60
2023-11-22T02:23:30.380Z,56.04
2023-11-22T02:25:57.721Z,56.16
2023-11-22T02:28:24.967Z,55.70
2023-11-22T02:30:52.948Z,55.72
2023-11-22T02:33:20.401Z,55.50
2023-11-22T02:35:47.665Z,55.38
2023-11-22T02:38:15.253Z,55.00
2023-11-22T02:40:42.610Z,55.10
2023-11-22T02:43:10.427Z,55.34
2023-11-22T02:45:38.493Z,55.66
2023-11-22T02:48:10.710Z,55.30
2023-11-22T02:50:45.070Z,55.20
2023-11-22T02:53:12.570Z,55.06
2023-11-22T02:55:39.851Z,54.84
2023-11-22T02:58:07.636Z,55.18
2023-11-22T03:00:36.222Z,55.87
2023-11-22T03:03:05.254Z,55.33
2023-11-22T03:05:34.063Z,56.04
2023-11-22T03:08:02.146Z,56.35
2023-11-22T03:10:29.425Z,56.15
2023-11-22T03:12:56.777Z,56.04
2023-11-22T03:15:24.034Z,55.99
2023-11-22T03:17:51.408Z,56.06
2023-11-22T03:20:18.863Z,56.01
2023-11-22T03:22:46.308Z,56.06
2023-11-22T03:25:13.591Z,56.46
2023-11-22T03:27:40.927Z,56.48
2023-11-22T03:30:13.304Z,56.50
2023-11-22T03:32:41.976Z,56.58
2023-11-22T03:35:09.998Z,56.58
2023-11-22T03:37:38.941Z,56.76
2023-11-22T03:40:06.898Z,56.86
2023-11-22T03:42:34.203Z,56.83
2023-11-22T03:45:01.469Z,56.83
2023-11-22T03:47:29.705Z,57.43
2023-11-22T03:49:57.476Z,58.14
2023-11-22T03:52:30.442Z,58.69
2023-11-22T03:54:59.924Z,59.01
2023-11-22T03:57:27.167Z,59.40
2023-11-22T03:59:54.599Z,60.07
2023-11-22T04:02:22.125Z,59.41
2023-11-22T04:04:49.605Z,59.49
2023-11-22T04:07:17.040Z,60.04
2023-11-22T04:09:44.395Z,59.17
2023-11-22T04:12:11.798Z,59.08
2023-11-22T04:14:39.322Z,58.66
2023-11-22T04:17:07.562Z,58.31
2023-11-22T04:19:35.363Z,58.09
2023-11-22T04:22:03.079Z,58.20
2023-11-22T04:24:31.091Z,57.78
2023-11-22T04:26:58.477Z,57.86
2023-11-22T04:29:26.628Z,57.70
2023-11-22T04:31:53.956Z,57.55
2023-11-22T04:34:21.702Z,57.24
2023-11-22T04:36:48.983Z,57.40
2023-11-22T04:39:16.742Z,57.71
2023-11-22T04:41:44.317Z,57.25
2023-11-22T04:44:12.369Z,57.33
2023-11-22T04:46:39.914Z,57.54
2023-11-22T04:49:08.904Z,57.25
2023-11-22T04:51:36.190Z,58.21
2023-11-22T04:54:04.121Z,57.58
2023-11-22T04:56:31.403Z,57.73
2023-11-22T04:58:58.867Z,57.74
2023-11-22T05:01:27.058Z,57.27
2023-11-22T05:03:54.612Z,56.84
2023-11-22T05:06:22.222Z,55.97
2023-11-22T05:08:49.853Z,56.26
2023-11-22T05:11:17.454Z,56.39
2023-11-22T05:13:44.897Z,55.48
2023-11-22T05:16:12.381Z,56.02
2023-11-22T05:18:39.772Z,56.00
2023-11-22T05:21:07.452Z,56.00
2023-11-22T05:23:34.880Z,56.68
2023-11-22T05:26:02.266Z,56.39
2023-11-22T05:28:29.750Z,57.02
2023-11-22T05:30:57.314Z,56.74
2023-11-22T05:33:25.426Z,56.70
2023-11-22T05:35:52.858Z,56.40
2023-11-22T05:38:20.362Z,56.19
2023-11-22T05:40:47.757Z,56.18
2023-11-22T05:43:15.076Z,55.80
2023-11-22T05:45:42.266Z,55.62
2023-11-22T05:48:09.613Z,55.25
2023-11-22T05:50:36.970Z,55.42
2023-11-22T05:53:04.506Z,55.48
2023-11-22T05:55:31.785Z,54.34
2023-11-22T05:57:59.232Z,54.27
2023-11-22T06:00:27.738Z,53.72
2023-11-22T06:02:54.984Z,53.96
2023-11-22T06:05:22.746Z,53.15
2023-11-22T06:07:50.117Z,53.04
2023-11-22T06:10:17.393Z,53.82
2023-11-22T06:12:45.415Z,53.31
2023-11-22T06:15:13.442Z,52.73
2023-11-22T06:17:40.944Z,53.23
2023-11-22T06:20:09.060Z,53.15
2023-11-22T06:22:36.388Z,53.50
2023-11-22T06:25:03.831Z,53.22
2023-11-22T06:27:31.128Z,53.14
2023-11-22T06:29:58.992Z,53.16
2023-11-22T06:32:26.489Z,52.71
2023-11-22T06:34:53.832Z,52.17
2023-11-22T06:37:22.092Z,52.15
2023-11-22T06:39:49.288Z,52.47
2023-11-22T06:42:16.487Z,51.75
2023-11-22T06:44:44.267Z,51.82
2023-11-22T06:47:14.739Z,51.78
2023-11-22T06:49:42.210Z,51.51
2023-11-22T06:52:10.256Z,51.98
2023-11-22T06:54:37.906Z,51.59
2023-11-22T06:57:05.338Z,51.80
2023-11-22T06:59:32.680Z,51.93
2023-11-22T07:01:59.923Z,51.66
2023-11-22T07:04:27.474Z,51.26
2023-11-22T07:06:54.854Z,50.89
2023-11-22T07:09:22.147Z,50.32
2023-11-22T07:11:51.109Z,50.37
2023-11-22T07:14:18.422Z,49.42
2023-11-22T07:16:45.681Z,49.37
2023-11-22T07:19:13.960Z,50.21
2023-11-22T07:21:41.176Z,50.12
2023-11-22T07:24:08.814Z,50.13
2023-11-22T07:26:36.055Z,49.83
2023-11-22T07:29:03.449Z,49.52
2023-11-22T07:31:30.688Z,49.70
2023-11-22T07:33:58.013Z,49.60
2023-11-22T07:36:26.074Z,49.73
2023-11-22T07:38:55.216Z,49.12
2023-11-22T07:41:22.782Z,49.66
2023-11-22T07:43:51.026Z,49.14
2023-11-22T07:46:18.973Z,49.19
2023-11-22T07:48:48.539Z,49.28
2023-11-22T07:51:18.141Z,48.14
2023-11-22T07:53:45.860Z,47.57
2023-11-22T07:56:13.840Z,47.42
2023-11-22T07:58:42.260Z,46.58
2023-11-22T08:01:14.824Z,46.92
2023-11-22T08:03:47.842Z,47.25
2023-11-22T08:06:18.022Z,46.58
2023-11-22T08:08:47.566Z,46.31
2023-11-22T08:11:19.456Z,47.09
2023-11-22T08:13:49.046Z,46.85
2023-11-22T08:16:16.430Z,45.37
2023-11-22T08:18:44.814Z,46.24
2023-11-22T08:21:12.975Z,46.67
2023-11-22T08:23:40.547Z,47.38
2023-11-22T08:26:10.016Z,46.97
2023-11-22T08:28:37.670Z,45.54
2023-11-22T08:31:11.368Z,46.79
2023-11-22T08:33:39.472Z,45.42
2023-11-22T08:36:10.539Z,46.22
2023-11-22T08:38:37.956Z,46.58
2023-11-22T08:41:09.838Z,46.02
2023-11-22T08:43:37.206Z,44.36
2023-11-22T08:46:13.778Z,45.59
2023-11-22T08:48:43.862Z,44.84
2023-11-22T08:51:11.975Z,46.00
2023-11-22T08:53:39.466Z,45.73
2023-11-22T08:56:07.311Z,46.70
2023-11-22T08:58:35.349Z,47.01
2023-11-22T09:01:05.185Z,46.71
2023-11-22T09:03:34.146Z,46.26
2023-11-22T09:06:02.012Z,45.89
2023-11-22T09:08:31.620Z,45.83
2023-11-22T09:10:59.215Z,45.74
2023-11-22T09:13:26.675Z,46.32
2023-11-22T09:15:54.105Z,46.53
2023-11-22T09:18:23.254Z,46.21
2023-11-22T09:20:50.613Z,45.28
2023-11-22T09:23:18.468Z,45.93
2023-11-22T09:25:45.801Z,45.65
2023-11-22T09:28:13.118Z,44.33
2023-11-22T09:30:42.494Z,42.34
2023-11-22T09:33:17.808Z,40.54
2023-11-22T09:35:47.798Z,39.38
2023-11-22T09:38:17.448Z,38.79
2023-11-22T09:40:50.374Z,36.61
2023-11-22T09:43:20.566Z,37.80
2023-11-22T09:45:53.280Z,35.04
2023-11-22T09:48:26.462Z,36.50
2023-11-22T09:51:10.039Z,35.98
2023-11-22T09:53:54.484Z,35.22
2023-11-22T09:56:22.042Z,34.70
2023-11-22T09:58:52.993Z,33.63
2023-11-22T10:01:20.480Z,34.72
2023-11-22T10:03:48.987Z,35.23
2023-11-22T10:06:17.279Z,37.83
2023-11-22T10:08:48.133Z,39.80
2023-11-22T10:11:19.410Z,39.87
2023-11-22T10:13:58.524Z,39.10
2023-11-22T10:16:26.078Z,40.09
2023-11-22T10:18:53.408Z,40.08
2023-11-22T10:21:33.755Z,40.52
2023-11-22T10:24:05.468Z,42.36
2023-11-22T10:26:33.489Z,43.07
2023-11-22T10:29:01.174Z,43.20
2023-11-22T10:31:29.651Z,43.12
2023-11-22T10:33:59.169Z,43.84
2023-11-22T10:36:27.070Z,44.00
2023-11-22T10:38:55.736Z,43.92
2023-11-22T10:41:26.032Z,43.27
2023-11-22T10:43:58.647Z,43.95
2023-11-22T10:46:29.536Z,42.34
2023-11-22T10:48:59.677Z,39.56
2023-11-22T10:51:33.347Z,35.38
2023-11-22T10:54:05.413Z,35.39
2023-11-22T10:56:41.042Z,33.63
2023-11-22T10:59:24.134Z,32.30
2023-11-22T11:01:54.213Z,31.66
2023-11-22T11:04:28.889Z,31.77
2023-11-22T11:06:59.772Z,30.99
2023-11-22T11:09:33.924Z,31.35
2023-11-22T11:12:07.618Z,31.59
2023-11-22T11:14:36.723Z,32.72
2023-11-22T11:17:06.219Z,32.50
2023-11-22T11:19:34.422Z,31.89
2023-11-22T11:22:02.312Z,31.93
2023-11-22T11:24:29.686Z,31.78
2023-11-22T11:26:57.013Z,31.74
2023-11-22T11:29:32.368Z,31.36
2023-11-22T11:31:59.832Z,30.98
2023-11-22T11:34:27.103Z,31.15
2023-11-22T11:36:58.113Z,31.46
2023-11-22T11:39:32.850Z,30.79
2023-11-22T11:42:17.342Z,30.54
2023-11-22T11:44:54.153Z,30.30
2023-11-22T11:47:21.776Z,30.33
2023-11-22T11:49:51.750Z,30.20
2023-11-22T11:52:19.236Z,30.11
2023-11-22T11:54:46.566Z,28.43
2023-11-22T11:57:14.041Z,28.19
2023-11-22T11:59:43.353Z,29.66
2023-11-22T12:02:11.004Z,29.38
2023-11-22T12:04:38.230Z,30.29
2023-11-22T12:07:09.553Z,28.93
2023-11-22T12:09:37.237Z,28.86
2023-11-22T12:12:04.853Z,29.14
2023-11-22T12:14:32.272Z,29.75
2023-11-22T12:17:00.563Z,29.15
2023-11-22T12:19:32.369Z,30.14
2023-11-22T12:22:00.399Z,29.96
2023-11-22T12:24:28.533Z,31.14
2023-11-22T12:26:57.540Z,33.42
2023-11-22T12:29:25.383Z,35.00
2023-11-22T12:31:54.186Z,35.33
2023-11-22T12:34:21.503Z,36.16
2023-11-22T12:36:50.168Z,36.66
2023-11-22T12:39:20.426Z,36.38
2023-11-22T12:42:02.176Z,36.47
2023-11-22T12:44:55.650Z,35.07
2023-11-22T12:47:39.098Z,33.39
2023-11-22T12:50:08.621Z,34.01
2023-11-22T12:52:46.608Z,34.77
2023-11-22T12:55:17.814Z,35.27
2023-11-22T12:57:45.683Z,36.85
2023-11-22T13:00:13.684Z,38.01
2023-11-22T13:02:52.251Z,39.33
2023-11-22T13:05:29.116Z,40.80
2023-11-22T13:07:56.422Z,41.71
2023-11-22T13:10:26.879Z,42.35
2023-11-22T13:12:55.536Z,42.81
2023-11-22T13:15:24.702Z,43.43
2023-11-22T13:17:56.633Z,43.56
2023-11-22T13:20:27.283Z,44.00
2023-11-22T13:22:55.404Z,44.16
2023-11-22T13:25:24.925Z,44.46
2023-11-22T13:27:53.565Z,44.80
2023-11-22T13:30:24.379Z,44.56
2023-11-22T13:32:53.039Z,44.79
2023-11-22T13:35:20.351Z,44.66
2023-11-22T13:37:51.712Z,45.02
2023-11-22T13:40:23.416Z,45.31
2023-11-22T13:42:53.695Z,45.70
2023-11-22T13:45:24.302Z,46.05
2023-11-22T13:48:00.409Z,46.28
2023-11-22T13:50:28.694Z,46.17
2023-11-22T13:52:57.513Z,46.71
2023-11-22T13:55:26.520Z,46.49
2023-11-22T13:57:55.965Z,46.87
2023-11-22T14:00:28.149Z,46.62
2023-11-22T14:02:58.458Z,47.79
2023-11-22T14:05:27.954Z,47.14
2023-11-22T14:07:55.623Z,47.60
2023-11-22T14:10:23.774Z,48.67
2023-11-22T14:12:51.853Z,47.81
2023-11-22T14:15:22.464Z,47.63
2023-11-22T14:17:54.089Z,47.84
2023-11-22T14:20:22.509Z,47.63
2023-11-22T14:22:49.911Z,48.16
2023-11-22T14:25:17.568Z,48.86
2023-11-22T14:27:47.076Z,49.00
2023-11-22T14:30:18.597Z,49.46
2023-11-22T14:32:46.568Z,48.80
2023-11-22T14:35:14.075Z,49.02
2023-11-22T14:37:42.202Z,48.83
2023-11-22T14:40:15.012Z,48.93
2023-11-22T14:42:44.367Z,48.94
2023-11-22T14:45:12.840Z,48.79
2023-11-22T14:47:41.487Z,50.35
2023-11-22T14:50:13.095Z,49.10
2023-11-22T14:52:41.436Z,49.42
2023-11-22T14:55:10.677Z,50.33
2023-11-22T14:57:38.530Z,50.05
2023-11-22T15:00:11.110Z,49.56
2023-11-22T15:02:38.782Z,49.72
2023-11-22T15:05:12.189Z,49.03
2023-11-22T15:07:43.216Z,49.39
2023-11-22T15:10:12.268Z,49.53
2023-11-22T15:12:41.775Z,49.96
2023-11-22T15:15:10.208Z,50.01
2023-11-22T15:17:37.557Z,50.34
2023-11-22T15:20:11.675Z,50.36
2023-11-22T15:22:39.933Z,50.59
2023-11-22T15:25:07.739Z,50.89
2023-11-22T15:27:36.046Z,51.18
2023-11-22T15:30:04.870Z,51.17
2023-11-22T15:32:32.398Z,51.07
2023-11-22T15:35:01.765Z,50.61
2023-11-22T15:37:30.620Z,50.94
2023-11-22T15:39:58.688Z,50.86
2023-11-22T15:42:26.186Z,50.82
2023-11-22T15:44:53.629Z,51.40
2023-11-22T15:47:21.568Z,51.93
2023-11-22T15:49:48.866Z,52.08
2023-11-22T15:52:16.757Z,52.55
2023-11-22T15:54:44.221Z,51.49
2023-11-22T15:57:11.507Z,52.33
2023-11-22T15:59:38.790Z,52.24
2023-11-22T16:02:09.822Z,52.62
2023-11-22T16:04:37.953Z,53.07
2023-11-22T16:07:05.690Z,53.60
2023-11-22T16:09:33.375Z,53.52
2023-11-22T16:12:00.657Z,53.99
2023-11-22T16:14:28.239Z,54.24
2023-11-22T16:16:55.527Z,54.92
2023-11-22T16:19:22.849Z,54.54
2023-11-22T16:21:50.097Z,54.92
2023-11-22T16:24:17.526Z,54.96
2023-11-22T16:26:44.975Z,55.30
2023-11-22T16:29:16.310Z,54.86
2023-11-22T16:31:45.615Z,54.39
2023-11-22T16:34:12.984Z,55.04
2023-11-22T16:36:40.316Z,54.92
2023-11-22T16:39:20.327Z,55.18
2023-11-22T16:41:54.439Z,55.09
2023-11-22T16:44:21.811Z,55.87
2023-11-22T16:46:50.353Z,55.65
2023-11-22T16:49:17.844Z,55.62
2023-11-22T16:51:47.391Z,55.41
2023-11-22T16:54:15.335Z,55.55
2023-11-22T16:56:42.895Z,55.47
2023-11-22T16:59:10.809Z,56.01
2023-11-22T17:01:38.372Z,55.70
2023-11-22T17:04:06.039Z,55.87
2023-11-22T17:06:33.578Z,56.20
2023-11-22T17:09:01.320Z,56.26
2023-11-22T17:11:28.626Z,56.78
2023-11-22T17:13:56.009Z,56.37
2023-11-22T17:16:23.498Z,56.31
2023-11-22T17:18:50.791Z,56.88
2023-11-22T17:21:18.705Z,56.58
2023-11-22T17:23:46.636Z,56.47
2023-11-22T17:26:14.210Z,56.63
2023-11-22T17:28:41.863Z,56.54
2023-11-22T17:31:09.245Z,56.95
2023-11-22T17:33:37.029Z,56.39
2023-11-22T17:36:05.940Z,56.45
2023-11-22T17:38:33.587Z,56.49
2023-11-22T17:41:03.968Z,57.29
2023-11-22T17:43:31.366Z,57.00
2023-11-22T17:45:59.390Z,56.94
2023-11-22T17:48:27.152Z,56.76
2023-11-22T17:50:56.433Z,56.45
2023-11-22T17:53:27.504Z,56.45
2023-11-22T17:55:55.106Z,56.83
2023-11-22T17:58:22.457Z,57.12
2023-11-22T18:00:49.967Z,56.38
2023-11-22T18:03:17.558Z,56.61
2023-11-22T18:05:46.678Z,56.18
2023-11-22T18:08:21.290Z,56.43
2023-11-22T18:10:50.944Z,56.26
2023-11-22T18:13:19.305Z,56.01
2023-11-22T18:15:48.564Z,56.38
2023-11-22T18:18:17.343Z,56.21
2023-11-22T18:20:46.400Z,56.09
2023-11-22T18:23:14.113Z,56.11
2023-11-22T18:25:41.572Z,56.46
2023-11-22T18:28:12.393Z,56.28
2023-11-22T18:30:40.036Z,56.67
2023-11-22T18:33:13.264Z,56.73
2023-11-22T18:35:41.318Z,56.72
2023-11-22T18:38:08.847Z,56.71
2023-11-22T18:40:36.554Z,56.77
2023-11-22T18:43:07.158Z,57.12
2023-11-22T18:45:34.868Z,56.82
2023-11-22T18:48:02.599Z,56.83
2023-11-22T18:50:30.374Z,56.87
2023-11-22T18:52:57.748Z,56.69
2023-11-22T18:55:25.197Z,56.37
2023-11-22T18:57:52.629Z,56.27
2023-11-22T19:00:21.426Z,56.04
2023-11-22T19:02:48.714Z,56.47
2023-11-22T19:05:16.531Z,56.54
2023-11-22T19:07:43.873Z,56.64
2023-11-22T19:10:11.298Z,56.73
2023-11-22T19:12:40.723Z,57.52
2023-11-22T19:15:11.930Z,56.72
2023-11-22T19:18:35.597Z,57.59
2023-11-22T19:21:22.597Z,57.33
2023-11-22T19:23:53.462Z,56.84
2023-11-22T19:26:25.275Z,56.81
2023-11-22T19:28:53.240Z,56.45
2023-11-22T19:31:21.556Z,56.32
2023-11-22T19:33:49.136Z,56.80
2023-11-22T19:36:27.113Z,57.05
2023-11-22T19:38:57.686Z,56.62
2023-11-22T19:41:25.846Z,56.45
2023-11-22T19:43:53.085Z,56.12
2023-11-22T19:46:21.141Z,55.74
2023-11-22T19:48:48.474Z,55.87
2023-11-22T19:51:15.857Z,55.74
2023-11-22T19:53:43.164Z,55.87
2023-11-22T19:56:10.622Z,55.43
2023-11-22T19:58:37.932Z,55.77
2023-11-22T20:01:07.235Z,55.59
2023-11-22T20:03:34.706Z,55.60
2023-11-22T20:06:02.249Z,56.13
2023-11-22T20:08:29.627Z,55.26
2023-11-22T20:10:56.972Z,55.74
2023-11-22T20:13:24.147Z,55.60
2023-11-22T20:15:53.105Z,55.86
2023-11-22T20:18:20.437Z,56.27
2023-11-22T20:20:48.157Z,56.07
2023-11-22T20:23:18.353Z,55.84
2023-11-22T20:25:45.768Z,55.96
2023-11-22T20:28:13.235Z,56.38
2023-11-22T20:30:40.545Z,55.88
2023-11-22T20:33:08.069Z,56.05
2023-11-22T20:35:35.551Z,56.22
2023-11-22T20:38:03.072Z,56.02
2023-11-22T20:40:30.292Z,56.54
2023-11-22T20:42:58.425Z,56.50
2023-11-22T20:45:25.801Z,56.27
2023-11-22T20:47:53.053Z,56.02
2023-11-22T20:50:20.330Z,56.19
2023-11-22T20:52:47.615Z,55.83
2023-11-22T20:55:16.797Z,56.08
2023-11-22T20:57:44.109Z,56.53
2023-11-22T21:00:12.432Z,56.05
2023-11-22T21:02:40.900Z,56.29
2023-11-22T21:05:09.012Z,56.21
2023-11-22T21:07:36.562Z,56.84
2023-11-22T21:10:04.539Z,56.70
2023-11-22T21:12:31.873Z,56.55
2023-11-22T21:15:00.291Z,57.04
2023-11-22T21:17:36.853Z,57.11
2023-11-22T21:20:11.349Z,56.90
2023-11-22T21:22:39.113Z,56.80
2023-11-22T21:25:10.997Z,56.85
2023-11-22T21:27:41.655Z,56.99
2023-11-22T21:30:11.356Z,56.83
2023-11-22T21:32:39.660Z,57.15
2023-11-22T21:35:09.635Z,57.26
2023-11-22T21:37:37.198Z,57.26
2023-11-22T21:40:11.790Z,57.47
2023-11-22T21:42:42.147Z,57.69
2023-11-22T21:45:12.674Z,57.19
2023-11-22T21:47:40.580Z,57.22
2023-11-22T21:50:09.054Z,57.49
2023-11-22T21:52:36.381Z,57.51
2023-11-22T21:55:04.138Z,57.64
2023-11-22T21:57:31.862Z,57.33
2023-11-22T22:00:00.558Z,57.44
2023-11-22T22:02:28.492Z,57.13
2023-11-22T22:04:55.703Z,57.42
2023-11-22T22:07:23.591Z,57.24
2023-11-22T22:09:50.871Z,57.71
2023-11-22T22:12:18.160Z,57.24
2023-11-22T22:14:45.421Z,57.23
2023-11-22T22:17:12.885Z,57.36
2023-11-22T22:19:40.278Z,57.00
2023-11-22T22:22:07.562Z,57.31
2023-11-22T22:24:34.774Z,57.66
2023-11-22T22:27:02.045Z,57.81
2023-11-22T22:29:29.417Z,57.77
2023-11-22T22:31:56.810Z,58.29
2023-11-22T22:34:23.973Z,57.74
2023-11-22T22:36:52.695Z,57.81
2023-11-22T22:39:19.880Z,57.47
2023-11-22T22:41:52.849Z,58.10
2023-11-22T22:44:20.159Z,58.12
2023-11-22T22:46:47.447Z,58.02
2023-11-22T22:49:15.228Z,57.90
2023-11-22T22:51:43.083Z,58.06
2023-11-22T22:54:10.829Z,57.87
2023-11-22T22:56:38.089Z,58.17
2023-11-22T22:59:07.743Z,58.36
2023-11-22T23:01:35.649Z,58.13
2023-11-22T23:04:05.029Z,57.91
2023-11-22T23:06:32.465Z,57.99
2023-11-22T23:08:59.691Z,58.52
2023-11-22T23:11:27.094Z,58.99
2023-11-22T23:13:54.293Z,58.38
2023-11-22T23:16:21.594Z,58.80
2023-11-22T23:18:57.711Z,58.65
2023-11-22T23:21:28.049Z,58.88
2023-11-22T23:23:55.620Z,58.73
2023-11-22T23:26:27.000Z,59.13
2023-11-22T23:28:54.684Z,59.12
2023-11-22T23:31:22.087Z,58.79
2023-11-22T23:33:51.912Z,58.99
2023-11-22T23:36:19.941Z,58.76
2023-11-22T23:38:47.997Z,59.19
2023-11-22T23:41:15.699Z,59.50
2023-11-22T23:43:43.093Z,59.01
2023-11-22T23:46:11.882Z,59.12
2023-11-22T23:48:39.945Z,60.16
2023-11-22T23:51:07.656Z,59.16
2023-11-22T23:53:34.892Z,58.72
2023-11-22T23:56:06.871Z,58.68
2023-11-22T23:58:34.091Z,58.43
